Time;durP1;ratioP1;P1;durP2;ratioP2;P2;SDS_P1;SDS_P2;PMS_P1;PMS_P2;Temp;Humidity;BMP_temperature;BMP_pressure;BME280_temperature;BME280_humidity;BME280_pressure;Samples;Min_cycle;Max_cycle;Signal;HPM_P1;HPM_P2
2022/06/10 00:00:03;;;;;;;;;;;12.30;99.90;;;;;;5136048;27;20120;-78
2022/06/10 00:02:31;;;;;;;12.13;3.80;;;12.70;99.90;;;;;;5139000;27;19923;-78
2022/06/10 00:04:57;;;;;;;;;;;12.30;99.90;;;;;;5158154;27;20039;-78
2022/06/10 00:07:23;;;;;;;9.25;3.63;;;12.60;99.90;;;;;;5137100;27;19931;-78
2022/06/10 00:09:50;;;;;;;8.55;3.65;;;12.30;99.90;;;;;;5157692;27;20485;-78
2022/06/10 00:12:15;;;;;;;7.30;3.78;;;12.30;99.90;;;;;;5156539;27;20508;-78
2022/06/10 00:14:41;;;;;;;;;;;12.30;99.90;;;;;;5139364;27;20054;-79
2022/06/10 00:17:07;;;;;;;11.80;4.30;;;12.30;99.90;;;;;;5155830;27;19915;-77
2022/06/10 00:19:32;;;;;;;;;;;12.20;99.90;;;;;;5138442;27;20050;-78
2022/06/10 00:21:58;;;;;;;11.35;3.95;;;12.20;99.90;;;;;;5158974;27;19925;-79
2022/06/10 00:24:24;;;;;;;8.73;3.70;;;12.20;99.90;;;;;;5158001;27;20559;-78
2022/06/10 00:26:49;;;;;;;8.32;4.00;;;12.20;99.90;;;;;;5157126;27;20047;-79
2022/06/10 00:29:15;;;;;;;;;;;12.30;99.90;;;;;;5156839;27;20042;-79
2022/06/10 00:31:41;;;;;;;8.75;3.38;;;12.20;99.90;;;;;;5158111;27;19926;-79
2022/06/10 00:34:10;;;;;;;12.05;3.75;;;12.20;99.90;;;;;;5156391;27;20049;-79
2022/06/10 00:36:35;;;;;;;7.95;3.58;;;12.20;99.90;;;;;;5139233;27;20043;-79
2022/06/10 00:39:01;;;;;;;;;;;12.20;99.90;;;;;;5139299;27;20098;-80
2022/06/10 00:41:27;;;;;;;7.68;3.35;;;12.10;99.90;;;;;;5156772;27;19985;-79
2022/06/10 00:43:52;;;;;;;9.35;3.53;;;12.00;99.90;;;;;;5136093;27;20047;-79
2022/06/10 00:46:34;;;;;;;8.02;3.78;;;11.90;99.90;;;;;;5117879;27;20074;-79
2022/06/10 00:49:11;;;;;;;12.98;3.97;;;12.00;99.90;;;;;;5136595;27;20118;-78
2022/06/10 00:51:42;;;;;;;10.85;3.60;;;12.00;99.90;;;;;;5118318;27;20047;-79
2022/06/10 00:54:30;;;;;;;8.60;4.00;;;12.00;99.90;;;;;;5135416;27;20042;-79
2022/06/10 00:57:11;;;;;;;8.70;3.65;;;11.90;99.90;;;;;;5117916;27;20182;-79
2022/06/10 00:59:45;;;;;;;11.10;4.38;;;11.90;99.90;;;;;;5136518;27;20156;-78
2022/06/10 01:02:15;;;;;;;7.78;3.72;;;11.90;99.90;;;;;;5116917;27;20109;-78
2022/06/10 01:04:42;;;;;;;9.30;4.03;;;11.80;99.90;;;;;;5117926;27;20054;-78
2022/06/10 01:07:10;;;;;;;9.85;4.50;;;11.80;99.90;;;;;;5136120;27;20042;-78
2022/06/10 01:09:37;;;;;;;7.35;4.28;;;11.80;99.90;;;;;;5134995;27;20076;-78
2022/06/10 01:12:15;;;;;;;12.10;4.63;;;11.90;99.90;;;;;;5116643;27;20044;-78
2022/06/10 01:15:00;;;;;;;9.55;4.22;;;11.80;99.90;;;;;;5135788;27;20134;-78
2022/06/10 01:17:44;;;;;;;8.85;4.15;;;11.90;99.90;;;;;;5138030;27;20061;-78
2022/06/10 01:20:23;;;;;;;7.10;4.05;;;11.80;99.90;;;;;;5156073;27;20078;-78
2022/06/10 01:23:12;;;;;;;10.95;4.32;;;11.80;99.90;;;;;;5135077;27;20058;-78
2022/06/10 01:26:22;;;;;;;9.23;4.50;;;11.80;99.90;;;;;;5137125;27;20046;-78
2022/06/10 01:29:06;;;;;;;12.82;5.05;;;11.80;99.90;;;;;;5054528;28;20049;-78
2022/06/10 01:31:48;;;;;;;10.32;4.18;;;11.80;99.90;;;;;;5055123;28;20048;-79
2022/06/10 01:34:41;;;;;;;10.93;4.32;;;11.80;99.90;;;;;;5117617;27;20047;-79
2022/06/10 01:37:22;;;;;;;11.05;4.00;;;11.80;99.90;;;;;;5116379;27;20070;-79
2022/06/10 01:40:02;;;;;;;10.50;3.90;;;11.80;99.90;;;;;;5135194;27;20425;-78
2022/06/10 01:42:41;;;;;;;10.93;3.50;;;11.90;99.90;;;;;;5135334;27;20047;-79
2022/06/10 01:45:16;;;;;;;11.05;3.95;;;11.90;99.90;;;;;;5134065;27;20046;-78
2022/06/10 01:47:51;;;;;;;10.38;4.05;;;11.90;99.90;;;;;;5116256;27;20487;-78
2022/06/10 01:50:29;;;;;;;8.32;3.65;;;12.30;99.90;;;;;;5116513;27;20059;-77
2022/06/10 01:53:16;;;;;;;9.13;3.90;;;11.90;99.90;;;;;;5116996;27;20085;-77
2022/06/10 01:55:54;;;;;;;11.98;4.07;;;11.90;99.90;;;;;;5116965;27;20047;-78
2022/06/10 01:58:40;;;;;;;10.07;3.50;;;11.90;99.90;;;;;;5115603;27;20085;-79
2022/06/10 02:01:23;;;;;;;14.93;4.70;;;11.90;99.90;;;;;;5135175;27;20043;-78
2022/06/10 02:04:15;;;;;;;12.48;3.90;;;12.00;99.90;;;;;;5134641;27;20483;-79
2022/06/10 02:06:56;;;;;;;14.35;4.15;;;11.90;99.90;;;;;;5128042;27;20072;-79
2022/06/10 02:09:28;;;;;;;11.43;3.85;;;11.90;99.90;;;;;;5134637;27;20088;-79
2022/06/10 02:12:07;;;;;;;12.32;3.88;;;12.00;99.90;;;;;;5136709;27;20042;-79
2022/06/10 02:15:08;;;;;;;7.88;3.30;;;11.90;99.90;;;;;;5136538;27;20045;-79
2022/06/10 02:17:42;;;;;;;9.45;3.53;;;12.00;99.90;;;;;;5122460;27;20133;-78
2022/06/10 02:20:15;;;;;;;11.98;3.50;;;12.00;99.90;;;;;;5154331;27;20050;-78
2022/06/10 02:22:45;;;;;;;8.32;3.42;;;12.00;99.90;;;;;;5136663;27;20442;-78
2022/06/10 02:25:23;;;;;;;11.18;3.35;;;12.00;99.90;;;;;;5134907;27;20470;-79
2022/06/10 02:27:59;;;;;;;14.63;3.58;;;12.00;99.90;;;;;;5121678;27;20047;-79
2022/06/10 02:30:28;;;;;;;;;;;12.00;99.90;;;;;;5116630;27;20059;-79
2022/06/10 02:32:56;;;;;;;12.32;3.42;;;12.10;99.90;;;;;;5115147;27;19923;-78
2022/06/10 02:35:26;;;;;;;8.77;3.25;;;12.10;99.90;;;;;;5134339;27;20390;-77
2022/06/10 02:38:03;;;;;;;10.07;3.72;;;11.90;99.90;;;;;;5117387;27;20074;-79
2022/06/10 02:40:38;;;;;;;12.93;3.35;;;11.90;99.90;;;;;;5115433;27;20078;-78
2022/06/10 02:43:16;;;;;;;6.87;3.33;;;11.90;99.90;;;;;;5134000;27;20071;-78
2022/06/10 02:45:46;;;;;;;9.13;3.60;;;11.90;99.90;;;;;;5115735;27;20490;-78
2022/06/10 02:48:16;;;;;;;10.18;3.92;;;11.90;99.90;;;;;;5133219;27;20083;-79
2022/06/10 02:50:44;;;;;;;9.18;3.30;;;11.90;99.90;;;;;;5115711;27;20132;-78
2022/06/10 02:53:10;;;;;;;7.25;3.10;;;11.80;99.90;;;;;;5152845;27;20043;-78
2022/06/10 02:55:38;;;;;;;;;;;11.70;99.90;;;;;;5136269;27;20405;-79
2022/06/10 03:01:36;;;;;;;11.65;3.08;;;11.70;99.90;;;;;;5154411;27;20057;-78
2022/06/10 03:04:35;;;;;;;13.73;4.15;;;11.80;99.90;;;;;;5135825;27;20066;-79
2022/06/10 03:07:17;;;;;;;8.35;3.20;;;11.80;99.90;;;;;;5126466;27;20078;-79
2022/06/10 03:10:01;;;;;;;10.20;3.05;;;11.80;99.90;;;;;;5115451;27;20410;-79
2022/06/10 03:12:43;;;;;;;9.77;3.20;;;11.90;99.90;;;;;;5115248;27;20047;-79
2022/06/10 03:15:08;;;;;;;11.65;3.55;;;11.90;99.90;;;;;;5114187;27;20039;-78
2022/06/10 03:17:49;;;;;;;;;;;12.00;99.90;;;;;;5115583;27;20187;-79
2022/06/10 03:20:20;;;;;;;9.88;3.55;;;12.10;99.90;;;;;;5134773;27;19915;-79
2022/06/10 03:23:11;;;;;;;11.55;3.60;;;12.20;99.90;;;;;;5114151;28;20046;-79
2022/06/10 03:25:53;;;;;;;9.35;3.13;;;12.20;99.90;;;;;;5115402;28;20047;-79
2022/06/10 03:28:28;;;;;;;11.82;3.42;;;12.20;99.90;;;;;;5132586;27;20231;-79
2022/06/10 03:30:57;;;;;;;8.57;3.40;;;12.20;99.90;;;;;;5134102;27;20042;-79
2022/06/10 03:33:59;;;;;;;12.27;3.42;;;12.20;99.90;;;;;;5153849;27;20049;-78
2022/06/10 03:36:26;;;;;;;9.95;3.50;;;12.20;99.90;;;;;;5090667;27;20081;-78
2022/06/10 03:38:53;;;;;;;10.25;2.72;;;12.20;99.90;;;;;;5135359;27;20034;-78
2022/06/10 03:41:24;;;;;;;9.57;3.60;;;12.20;99.90;;;;;;5134476;27;20111;-78
2022/06/10 03:43:52;;;;;;;9.93;3.20;;;12.20;99.90;;;;;;5135019;27;20047;-78
2022/06/10 03:46:24;;;;;;;8.48;2.90;;;12.20;99.90;;;;;;5134983;27;20176;-79
2022/06/10 03:48:52;;;;;;;12.43;2.90;;;12.20;99.90;;;;;;5135422;27;20058;-78
2022/06/10 03:51:20;;;;;;;8.73;3.50;;;12.30;99.90;;;;;;5134690;27;20058;-78
2022/06/10 03:53:47;;;;;;;11.32;3.22;;;12.30;99.90;;;;;;5135464;27;20042;-78
2022/06/10 03:56:19;;;;;;;8.07;2.97;;;12.30;99.90;;;;;;5153567;27;20039;-78
2022/06/10 03:58:44;;;;;;;13.02;3.50;;;12.40;99.90;;;;;;5153329;27;20039;-78
2022/06/10 04:01:10;;;;;;;;;;;12.40;99.90;;;;;;5152417;27;20045;-78
2022/06/10 04:03:37;;;;;;;11.95;3.72;;;12.50;99.90;;;;;;5152848;27;20441;-78
2022/06/10 04:06:03;;;;;;;8.57;3.28;;;12.50;99.90;;;;;;5135242;27;20059;-78
2022/06/10 04:08:29;;;;;;;9.50;3.15;;;12.60;99.90;;;;;;5127942;27;20038;-78
2022/06/10 04:10:54;;;;;;;;;;;12.60;99.90;;;;;;5134759;27;20569;-79
2022/06/10 04:13:20;;;;;;;6.28;3.47;;;12.70;99.90;;;;;;5134929;27;19922;-79
2022/06/10 04:15:46;;;;;;;;;;;12.90;99.90;;;;;;5135639;27;20841;-79
2022/06/10 04:18:13;;;;;;;7.03;2.83;;;12.90;99.90;;;;;;5133967;27;19966;-78
2022/06/10 04:20:40;;;;;;;14.15;3.63;;;12.80;99.90;;;;;;5154061;27;20035;-79
2022/06/10 04:23:07;;;;;;;9.60;3.55;;;12.90;99.90;;;;;;5132997;27;20047;-78
2022/06/10 04:25:35;;;;;;;7.85;3.60;;;13.00;99.90;;;;;;5153060;27;20043;-79
2022/06/10 04:28:01;;;;;;;11.73;3.50;;;13.30;99.90;;;;;;5135056;27;20482;-78
2022/06/10 04:30:42;;;;;;;;;;;13.10;99.90;;;;;;5135131;27;20072;-78
2022/06/10 04:33:08;;;;;;;9.65;3.05;;;13.10;99.90;;;;;;5152402;27;20006;-78
2022/06/10 04:35:35;;;;;;;;;;;13.00;99.90;;;;;;5154012;27;20093;-79
2022/06/10 04:38:00;;;;;;;10.98;3.45;;;13.00;99.90;;;;;;5126456;28;20386;-79
2022/06/10 04:40:31;;;;;;;12.48;3.13;;;13.10;99.90;;;;;;5114185;28;20081;-79
2022/06/10 04:42:58;;;;;;;8.13;2.80;;;13.30;99.90;;;;;;5114520;28;20044;-79
2022/06/10 04:45:31;;;;;;;7.72;3.13;;;13.30;99.90;;;;;;5114176;28;20062;-79
2022/06/10 04:47:58;;;;;;;9.48;2.90;;;13.20;99.90;;;;;;5117195;27;20043;-79
2022/06/10 04:50:27;;;;;;;11.63;2.88;;;13.30;99.90;;;;;;5136286;27;20043;-78
2022/06/10 04:52:53;;;;;;;6.25;2.97;;;13.20;99.90;;;;;;5135609;27;20047;-78
2022/06/10 04:55:20;;;;;;;11.10;3.00;;;13.20;99.90;;;;;;5117841;27;20065;-79
2022/06/10 04:57:46;;;;;;;8.45;3.08;;;13.60;99.90;;;;;;5118062;27;20058;-79
2022/06/10 05:00:20;;;;;;;7.85;3.13;;;13.30;99.90;;;;;;5135624;27;20046;-79
2022/06/10 05:02:45;;;;;;;12.15;3.20;;;13.40;99.90;;;;;;5136158;27;20126;-79
2022/06/10 05:05:11;;;;;;;;;;;13.70;99.90;;;;;;5138736;27;20142;-80
2022/06/10 05:07:37;;;;;;;9.10;3.53;;;13.80;99.90;;;;;;5147512;27;19919;-79
2022/06/10 05:10:04;;;;;;;8.57;3.40;;;14.00;99.90;;;;;;5147048;27;20458;-78
2022/06/10 05:12:30;;;;;;;9.90;3.53;;;14.20;99.90;;;;;;5127272;27;20096;-79
2022/06/10 05:14:55;;;;;;;;;;;14.40;99.90;;;;;;5142741;27;20115;-80
2022/06/10 05:17:21;;;;;;;10.75;3.13;;;14.50;99.90;;;;;;5126009;27;19923;-78
2022/06/10 05:19:47;;;;;;;9.77;3.45;;;14.60;99.90;;;;;;5145764;27;20049;-79
2022/06/10 05:22:16;;;;;;;9.77;3.30;;;14.50;99.90;;;;;;5126237;27;20382;-79
2022/06/10 05:24:42;;;;;;;6.13;3.47;;;14.60;99.90;;;;;;5147387;27;20046;-79
2022/06/10 05:27:08;;;;;;;10.48;3.47;;;14.60;99.90;;;;;;5147652;27;20039;-78
2022/06/10 05:29:37;;;;;;;8.00;3.38;;;14.80;99.90;;;;;;5145159;27;20039;-78
2022/06/10 05:32:03;;;;;;;10.35;4.10;;;14.50;99.90;;;;;;5138201;27;20039;-80
2022/06/10 05:34:47;;;;;;;9.35;3.25;;;14.50;99.90;;;;;;5142775;27;20122;-80
2022/06/10 05:37:21;;;;;;;9.15;3.40;;;14.40;99.90;;;;;;5136044;27;20035;-79
2022/06/10 05:39:47;;;;;;;9.60;4.13;;;14.50;99.90;;;;;;5118537;27;20482;-80
2022/06/10 05:42:14;;;;;;;11.40;3.92;;;14.40;99.90;;;;;;5136006;27;20039;-79
2022/06/10 05:44:45;;;;;;;11.68;3.28;;;14.50;99.90;;;;;;5136950;27;20054;-79
2022/06/10 05:47:21;;;;;;;11.25;3.80;;;14.60;99.90;;;;;;5135460;27;20059;-79
2022/06/10 05:49:49;;;;;;;13.95;3.72;;;14.60;99.90;;;;;;5116066;27;20060;-79
2022/06/10 05:52:18;;;;;;;11.43;4.05;;;14.60;99.90;;;;;;5117018;27;20391;-79
2022/06/10 05:54:47;;;;;;;9.48;3.67;;;14.50;99.90;;;;;;5130183;27;20042;-79
2022/06/10 05:57:13;;;;;;;15.77;3.88;;;14.60;99.90;;;;;;5137156;27;20497;-79
2022/06/10 05:59:39;;;;;;;8.65;3.72;;;14.70;99.90;;;;;;5155047;27;20489;-79
2022/06/10 06:02:08;;;;;;;9.70;3.58;;;14.80;99.90;;;;;;5156052;27;20046;-79
2022/06/10 06:04:34;;;;;;;10.90;4.30;;;14.90;99.90;;;;;;5136887;27;20054;-79
2022/06/10 06:07:00;;;;;;;12.52;4.68;;;15.00;99.90;;;;;;5137988;27;20086;-79
2022/06/10 06:09:26;;;;;;;14.30;4.93;;;15.10;99.90;;;;;;5154203;27;20046;-79
2022/06/10 06:11:54;;;;;;;9.93;4.25;;;15.20;99.90;;;;;;5155573;27;20050;-79
2022/06/10 06:14:21;;;;;;;11.20;4.20;;;15.20;99.90;;;;;;5137460;27;20082;-79
2022/06/10 06:16:53;;;;;;;8.93;4.28;;;15.30;99.90;;;;;;5155911;27;20463;-78
2022/06/10 06:19:18;;;;;;;10.93;4.57;;;15.40;99.90;;;;;;5155091;27;20094;-79
2022/06/10 06:21:44;;;;;;;8.93;4.88;;;15.40;99.90;;;;;;5156093;27;20390;-79
2022/06/10 06:24:13;;;;;;;10.23;4.18;;;15.60;99.90;;;;;;5154533;27;20549;-77
2022/06/10 06:26:39;;;;;;;8.70;4.40;;;15.60;99.90;;;;;;5155265;27;20058;-77
2022/06/10 06:29:08;;;;;;;8.20;4.50;;;15.70;99.90;;;;;;5152161;27;20047;-77
2022/06/10 06:31:34;;;;;;;8.57;4.60;;;15.70;99.90;;;;;;5136267;27;20051;-77
2022/06/10 06:33:59;;;;;;;9.75;4.68;;;15.70;99.90;;;;;;5154969;27;20030;-75
2022/06/10 06:36:27;;;;;;;6.75;3.97;;;15.70;99.90;;;;;;5137427;27;20058;-79
2022/06/10 06:38:53;;;;;;;7.95;4.03;;;15.80;99.90;;;;;;5155193;27;20066;-80
2022/06/10 06:41:20;;;;;;;10.65;4.43;;;16.00;99.90;;;;;;5136920;27;20066;-83
2022/06/10 06:43:46;;;;;;;8.55;4.35;;;15.90;99.90;;;;;;5137108;27;20070;-78
2022/06/10 06:46:18;;;;;;;8.63;4.53;;;15.90;99.90;;;;;;5136222;27;20092;-86
2022/06/10 06:48:44;;;;;;;6.00;4.15;;;16.00;99.90;;;;;;5127410;27;20036;-83
2022/06/10 06:51:11;;;;;;;7.43;4.15;;;16.00;99.90;;;;;;5134700;27;20042;-79
2022/06/10 06:53:37;;;;;;;7.78;4.13;;;15.90;99.90;;;;;;5133523;27;20078;-87
2022/06/10 06:56:05;;;;;;;7.93;4.40;;;15.90;99.90;;;;;;5134348;27;20070;-83
2022/06/10 06:58:32;;;;;;;7.43;4.07;;;16.00;99.90;;;;;;5134073;27;20046;-87
2022/06/10 07:00:58;;;;;;;8.05;4.70;;;16.00;99.90;;;;;;5113920;27;20515;-84
2022/06/10 07:03:24;;;;;;;9.00;4.40;;;16.00;99.90;;;;;;5119411;27;20042;-85
2022/06/10 07:05:50;;;;;;;8.27;4.43;;;16.00;99.90;;;;;;5116627;27;20144;-77
2022/06/10 07:08:17;;;;;;;9.50;5.32;;;15.90;99.90;;;;;;5114617;27;20051;-77
2022/06/10 07:10:43;;;;;;;9.73;4.80;;;15.80;99.90;;;;;;5133875;27;20051;-77
2022/06/10 07:13:12;;;;;;;7.00;4.78;;;16.00;99.90;;;;;;5116263;27;20074;-80
2022/06/10 07:15:40;;;;;;;8.90;5.18;;;16.00;99.90;;;;;;5133335;27;20043;-79
2022/06/10 07:18:07;;;;;;;8.30;5.68;;;16.00;99.90;;;;;;5115444;27;20047;-81
2022/06/10 07:20:34;;;;;;;9.88;5.57;;;16.00;99.90;;;;;;5114788;27;20127;-80
2022/06/10 07:23:01;;;;;;;8.65;5.03;;;15.90;99.90;;;;;;5125917;27;20474;-80
2022/06/10 07:25:28;;;;;;;7.60;5.00;;;16.10;99.90;;;;;;5154862;27;20119;-80
2022/06/10 07:27:55;;;;;;;7.95;5.30;;;16.00;99.90;;;;;;5130931;27;20038;-89
2022/06/10 07:30:23;;;;;;;8.95;4.57;;;15.90;99.90;;;;;;5116785;27;20047;-84
2022/06/10 07:32:49;;;;;;;9.38;5.10;;;16.00;99.90;;;;;;5133692;27;20482;-76
2022/06/10 07:35:17;;;;;;;8.40;5.13;;;16.00;99.90;;;;;;5114405;27;20096;-76
2022/06/10 07:37:42;;;;;;;7.70;4.47;;;15.90;99.90;;;;;;5115774;27;20075;-80
2022/06/10 07:41:56;;;;;;;7.32;4.90;;;15.90;99.90;;;;;;5133905;27;20147;-79
2022/06/10 07:42:54;;;;;;;9.30;5.18;;;15.90;99.90;;;;;;5153465;27;20458;-76
2022/06/10 07:45:20;;;;;;;9.93;5.68;;;15.90;99.90;;;;;;5130929;27;20047;-79
2022/06/10 07:47:48;;;;;;;8.73;5.80;;;15.90;99.90;;;;;;5144316;27;20250;-82
2022/06/10 07:50:14;;;;;;;9.88;6.03;;;15.90;99.90;;;;;;5132096;28;20053;-78
2022/06/10 07:52:39;;;;;;;8.80;5.85;;;15.80;99.90;;;;;;5130911;27;20427;-75
2022/06/10 07:55:05;;;;;;;9.82;5.85;;;15.70;99.90;;;;;;5154121;27;20054;-77
2022/06/10 07:57:31;;;;;;;10.77;6.72;;;15.70;99.90;;;;;;5152815;27;20296;-81
2022/06/10 07:59:59;;;;;;;10.00;7.00;;;15.70;99.90;;;;;;5117124;28;20039;-77
2022/06/10 08:02:25;;;;;;;12.05;7.28;;;15.70;99.90;;;;;;5123865;27;20042;-82
2022/06/10 08:04:51;;;;;;;10.77;8.07;;;15.80;99.90;;;;;;5152809;27;20038;-83
2022/06/10 08:07:18;;;;;;;10.73;7.50;;;15.80;99.90;;;;;;5154122;27;20076;-86
2022/06/10 08:09:46;;;;;;;11.10;6.25;;;15.90;99.90;;;;;;5134876;27;20042;-83
2022/06/10 08:12:12;;;;;;;10.57;6.65;;;16.00;99.90;;;;;;5154080;27;20043;-86
2022/06/10 08:14:38;;;;;;;9.77;6.47;;;16.20;99.90;;;;;;5135428;27;20039;-81
2022/06/10 08:17:06;;;;;;;9.15;6.38;;;16.30;99.90;;;;;;5140919;27;20107;-84
2022/06/10 08:19:33;;;;;;;11.40;6.85;;;16.40;99.90;;;;;;5116128;28;20125;-87
2022/06/10 08:24:43;;;;;;;14.55;7.65;;;16.50;99.90;;;;;;5154707;27;20086;-86
2022/06/10 08:27:09;;;;;;;12.07;7.82;;;16.30;99.90;;;;;;5140569;27;20354;-85
2022/06/10 08:29:34;;;;;;;13.60;7.70;;;16.20;99.90;;;;;;5138919;27;20042;-86
2022/06/10 08:32:00;;;;;;;12.13;8.00;;;16.10;99.90;;;;;;5158277;27;20051;-86
2022/06/10 08:34:26;;;;;;;12.65;7.97;;;16.20;99.90;;;;;;5158894;27;20038;-87
2022/06/10 08:36:51;;;;;;;11.82;7.30;;;16.10;99.90;;;;;;5159032;27;20039;-81
2022/06/10 08:39:17;;;;;;;12.82;8.52;;;16.20;99.90;;;;;;5156398;27;20045;-83
2022/06/10 08:41:48;;;;;;;13.55;8.32;;;16.10;99.90;;;;;;5158175;27;20065;-84
2022/06/10 08:44:34;;;;;;;19.80;8.55;;;16.20;99.90;;;;;;5138978;27;20054;-83
2022/06/10 08:47:17;;;;;;;14.87;9.60;;;16.40;99.90;;;;;;5136860;27;20456;-85
2022/06/10 08:50:01;;;;;;;14.95;8.18;;;16.60;99.90;;;;;;5156533;27;20064;-84
2022/06/10 08:52:38;;;;;;;16.55;9.18;;;17.00;99.90;;;;;;5156830;27;20038;-85
2022/06/10 08:55:24;;;;;;;;;;;17.20;99.90;;;;;;5157947;27;20054;-85
2022/06/10 08:57:49;;;;;;;14.30;7.68;;;17.20;99.90;;;;;;5136845;27;19926;-79
2022/06/10 09:00:31;;;;;;;15.63;9.43;;;17.40;99.90;;;;;;5147262;27;20038;-79
2022/06/10 09:03:19;;;;;;;16.63;8.90;;;17.40;99.90;;;;;;5123291;27;20451;-78
2022/06/10 09:05:53;;;;;;;15.98;8.90;;;17.60;99.90;;;;;;5138368;27;20696;-78
2022/06/10 09:08:30;;;;;;;13.50;7.55;;;17.70;99.90;;;;;;5135846;27;20051;-81
2022/06/10 09:11:19;;;;;;;14.05;7.75;;;17.70;99.90;;;;;;5155427;27;20081;-83
2022/06/10 09:13:48;;;;;;;16.00;8.25;;;17.70;99.90;;;;;;5136328;27;20535;-76
2022/06/10 09:16:20;;;;;;;12.40;7.45;;;17.70;99.90;;;;;;5143220;27;20196;-75
2022/06/10 09:19:08;;;;;;;16.95;8.35;;;17.70;99.90;;;;;;5138708;27;20035;-77
2022/06/10 09:21:37;;;;;;;17.23;8.27;;;17.80;99.90;;;;;;5116112;27;20105;-75
2022/06/10 09:24:10;;;;;;;16.83;7.88;;;17.80;99.90;;;;;;5118192;27;20054;-74
2022/06/10 09:26:42;;;;;;;16.27;7.72;;;17.90;99.90;;;;;;5134919;27;20050;-75
2022/06/10 09:29:09;;;;;;;13.27;7.50;;;18.00;99.90;;;;;;5123256;27;20129;-77
2022/06/10 09:32:15;;;;;;;13.13;6.97;;;18.10;99.90;;;;;;5156020;27;20039;-76
2022/06/10 09:35:04;;;;;;;14.13;7.50;;;18.30;99.90;;;;;;5147716;27;20042;-75
2022/06/10 09:37:53;;;;;;;13.77;7.20;;;18.30;99.90;;;;;;5156361;27;20126;-80
2022/06/10 09:40:37;;;;;;;15.52;8.25;;;18.20;99.90;;;;;;5137274;27;20046;-81
2022/06/10 09:43:26;;;;;;;17.08;9.07;;;18.30;99.90;;;;;;5136653;27;20155;-86
2022/06/10 09:46:17;;;;;;;18.05;9.15;;;18.30;99.90;;;;;;5136145;27;20062;-80
2022/06/10 09:48:58;;;;;;;13.32;8.75;;;18.20;99.90;;;;;;5116851;27;20062;-80
2022/06/10 09:51:35;;;;;;;14.80;8.75;;;18.20;99.90;;;;;;5117495;27;20047;-80
2022/06/10 09:54:07;;;;;;;13.93;8.50;;;18.10;99.90;;;;;;5135464;27;20051;-80
2022/06/10 09:56:51;;;;;;;13.10;7.80;;;18.10;99.90;;;;;;5135775;27;20052;-80
2022/06/10 09:59:42;;;;;;;13.73;8.07;;;18.10;99.90;;;;;;5136673;27;20050;-81
2022/06/10 10:02:19;;;;;;;11.68;7.63;;;18.00;99.90;;;;;;5135256;27;20047;-80
2022/06/10 10:04:48;;;;;;;12.55;7.53;;;17.80;99.90;;;;;;5136471;27;20049;-80
2022/06/10 10:07:38;;;;;;;15.85;7.57;;;17.70;99.90;;;;;;5137206;27;20038;-80
2022/06/10 10:10:10;;;;;;;13.10;7.82;;;17.60;99.90;;;;;;5132632;27;20038;-79
2022/06/10 10:12:54;;;;;;;13.23;7.07;;;17.70;99.90;;;;;;5155215;27;20047;-79
2022/06/10 10:15:53;;;;;;;13.25;7.97;;;17.70;99.90;;;;;;5136660;27;20046;-81
2022/06/10 10:18:40;;;;;;;11.18;6.90;;;17.90;99.90;;;;;;5151862;27;20054;-79
2022/06/10 10:21:13;;;;;;;13.52;7.65;;;17.90;99.90;;;;;;5136634;27;20047;-78
2022/06/10 10:23:43;;;;;;;10.82;7.50;;;17.90;99.90;;;;;;5130081;27;20042;-79
2022/06/10 10:26:22;;;;;;;12.73;8.35;;;17.90;99.90;;;;;;5136320;27;20046;-78
2022/06/10 10:28:52;;;;;;;13.25;6.95;;;17.90;99.90;;;;;;5136956;27;20050;-78
2022/06/10 10:31:24;;;;;;;15.60;7.65;;;17.90;99.90;;;;;;5148611;27;20031;-78
2022/06/10 10:33:50;;;;;;;13.15;6.80;;;17.90;99.90;;;;;;5134207;27;20573;-78
2022/06/10 10:36:28;;;;;;;11.85;6.20;;;17.90;99.90;;;;;;5115686;27;20043;-80
2022/06/10 10:38:55;;;;;;;12.18;5.93;;;17.90;99.90;;;;;;5116182;27;20047;-79
2022/06/10 10:41:40;;;;;;;13.10;6.03;;;18.10;99.90;;;;;;5134427;27;20134;-80
2022/06/10 10:44:26;;;;;;;13.05;6.38;;;18.20;99.90;;;;;;5115514;27;20543;-79
2022/06/10 10:47:11;;;;;;;11.90;5.78;;;18.30;99.90;;;;;;5134304;27;20052;-78
2022/06/10 10:49:43;;;;;;;9.43;6.13;;;18.40;99.90;;;;;;5116089;27;20054;-78
2022/06/10 10:52:17;;;;;;;10.32;5.82;;;18.50;99.90;;;;;;5115941;27;20035;-81
2022/06/10 10:54:47;;;;;;;10.50;7.53;;;18.50;99.90;;;;;;5134456;27;20039;-79
2022/06/10 10:57:36;;;;;;;14.55;8.80;;;18.70;99.90;;;;;;5115459;27;20046;-81
2022/06/10 11:00:20;;;;;;;13.48;9.57;;;18.70;99.90;;;;;;5133243;27;20043;-79
2022/06/10 11:02:52;;;;;;;10.95;9.40;;;18.90;99.90;;;;;;5115809;27;20042;-86
2022/06/10 11:05:36;;;;;;;15.38;9.68;;;19.10;99.90;;;;;;5125461;27;20046;-83
2022/06/10 11:08:17;;;;;;;12.70;9.80;;;19.20;99.90;;;;;;5152680;27;20027;-81
2022/06/10 11:11:14;;;;;;;12.90;9.27;;;19.40;99.90;;;;;;5134170;27;20031;-81
2022/06/10 11:13:39;;;;;;;;;;;19.60;99.90;;;;;;5129497;27;20379;-80
2022/06/10 11:16:23;;;;;;;11.60;8.40;;;19.60;99.90;;;;;;5135612;27;19930;-78
2022/06/10 11:18:52;;;;;;;8.82;6.97;;;19.60;99.90;;;;;;5135684;27;20078;-77
2022/06/10 11:21:20;;;;;;;15.10;7.25;;;19.50;99.90;;;;;;5121597;27;20038;-80
2022/06/10 11:23:55;;;;;;;12.63;5.90;;;19.40;99.90;;;;;;5131030;27;20149;-90
2022/06/10 11:26:22;;;;;;;12.93;5.22;;;19.10;99.90;;;;;;5116890;28;20043;-83
2022/06/10 11:28:57;;;;;;;8.30;5.38;;;19.00;99.90;;;;;;5115377;27;20096;-81
2022/06/10 11:31:47;;;;;;;8.85;5.57;;;18.90;99.90;;;;;;5126444;27;20050;-82
2022/06/10 11:34:22;;;;;;;10.00;5.60;;;18.90;99.90;;;;;;5135326;27;20084;-82
2022/06/10 11:36:53;;;;;;;10.63;6.10;;;19.00;99.90;;;;;;5154756;27;20058;-82
2022/06/10 11:39:33;;;;;;;7.93;5.68;;;19.00;99.90;;;;;;5142704;27;20035;-82
2022/06/10 11:42:18;;;;;;;10.00;5.93;;;19.00;99.90;;;;;;5130327;27;20047;-84
2022/06/10 11:45:00;;;;;;;12.43;5.85;;;19.10;99.90;;;;;;5132251;27;20043;-82
2022/06/10 11:47:38;;;;;;;8.85;5.45;;;19.30;99.90;;;;;;5135640;27;20051;-76
2022/06/10 11:50:12;;;;;;;9.80;6.22;;;19.30;99.90;;;;;;5132343;28;20367;-77
2022/06/10 11:52:53;;;;;;;9.98;5.82;;;19.20;99.90;;;;;;5116095;28;20441;-76
2022/06/10 11:55:23;;;;;;;7.93;5.43;;;19.30;99.90;;;;;;5136332;27;20118;-75
2022/06/10 12:01:03;;;;;;;11.60;5.85;;;19.80;99.90;;;;;;5145531;27;20110;-74
2022/06/10 12:03:55;;;;;;;10.23;5.40;;;20.50;99.90;;;;;;5143537;27;20043;-74
2022/06/10 12:06:39;;;;;;;10.43;5.20;;;20.90;99.90;;;;;;5126205;27;20057;-76
2022/06/10 12:09:33;;;;;;;6.50;4.03;;;20.90;99.90;;;;;;5146386;27;20035;-75
2022/06/10 12:12:12;;;;;;;6.63;4.05;;;20.80;99.90;;;;;;5125049;27;20051;-74
2022/06/10 12:14:42;;;;;;;7.43;4.72;;;20.50;99.90;;;;;;5142421;27;20101;-72
2022/06/10 12:17:20;;;;;;;7.78;4.88;;;20.20;99.90;;;;;;5134731;27;20034;-74
2022/06/10 12:20:13;;;;;;;6.75;3.47;;;20.20;99.90;;;;;;5127302;27;20142;-72
2022/06/10 12:22:39;;;;;;;5.25;2.03;;;20.20;99.90;;;;;;5122587;27;20046;-76
2022/06/10 12:25:33;;;;;;;4.43;2.17;;;20.20;99.90;;;;;;5135858;27;20451;-74
2022/06/10 12:28:08;;;;;;;4.25;1.73;;;20.40;99.90;;;;;;5138859;27;20092;-76
2022/06/10 12:30:53;;;;;;;4.47;2.30;;;20.50;99.90;;;;;;5144142;27;20043;-77
2022/06/10 12:33:52;;;;;;;6.75;2.58;;;20.60;99.90;;;;;;5147062;27;20665;-76
2022/06/10 12:36:26;;;;;;;7.15;3.40;;;20.70;99.90;;;;;;5114232;27;20054;-74
2022/06/10 12:38:53;;;;;;;7.47;3.92;;;20.90;99.90;;;;;;5146841;27;20042;-79
2022/06/10 12:41:27;;;;;;;7.72;3.33;;;20.80;99.90;;;;;;5124939;27;20218;-72
2022/06/10 12:44:00;;;;;;;5.18;2.63;;;20.50;99.90;;;;;;5122960;27;20074;-74
2022/06/10 12:46:46;;;;;;;6.90;2.92;;;20.70;99.90;;;;;;5128507;27;20049;-73
2022/06/10 12:49:26;;;;;;;6.20;2.30;;;20.90;99.90;;;;;;5144931;27;20035;-75
2022/06/10 12:52:20;;;;;;;6.22;2.17;;;21.30;99.90;;;;;;5129276;27;20054;-72
2022/06/10 12:55:03;;;;;;;7.30;2.67;;;21.60;99.90;;;;;;5146700;27;20043;-75
2022/06/10 12:57:42;;;;;;;11.27;4.43;;;21.60;99.90;;;;;;5125095;27;20092;-72
2022/06/10 13:00:23;;;;;;;8.27;2.20;;;21.60;99.90;;;;;;5143100;27;20130;-71
2022/06/10 13:03:11;;;;;;;5.10;1.73;;;21.70;99.90;;;;;;5132991;27;20042;-73
2022/06/10 13:05:37;;;;;;;5.65;2.00;;;21.90;99.90;;;;;;5126745;27;20394;-76
2022/06/10 13:08:35;;;;;;;5.07;2.28;;;22.00;99.90;;;;;;5132954;27;20035;-75
2022/06/10 13:11:08;;;;;;;7.38;2.10;;;21.90;99.90;;;;;;5142907;27;20089;-75
2022/06/10 13:13:35;;;;;;;7.82;2.72;;;21.80;99.90;;;;;;5121575;27;20046;-74
2022/06/10 13:16:25;;;;;;;8.57;3.30;;;21.70;99.90;;;;;;5149266;27;20047;-72
2022/06/10 13:18:56;;;;;;;10.90;3.03;;;21.50;99.90;;;;;;5126742;27;20099;-74
2022/06/10 13:21:29;;;;;;;7.28;2.70;;;21.20;99.90;;;;;;5127932;27;20490;-73
2022/06/10 13:23:58;;;;;;;9.10;3.42;;;21.20;99.90;;;;;;5125251;27;20031;-74
2022/06/10 13:26:34;;;;;;;5.55;3.05;;;21.40;99.90;;;;;;5132863;27;20045;-73